sensor_id;sensor_type;location;lat;lon;timestamp;pressure;altitude;pressure_sealevel;temperature;humidity
62544;BME280;48597;49.030;1.822;2024-01-30T00:00:37;101837.91;;;20.62;39.73
62544;BME280;48597;49.030;1.822;2024-01-30T00:03:03;101828.09;;;20.63;39.60
62544;BME280;48597;49.030;1.822;2024-01-30T00:05:28;101832.19;;;20.62;39.68
62544;BME280;48597;49.030;1.822;2024-01-30T00:07:53;101839.53;;;20.63;39.73
62544;BME280;48597;49.030;1.822;2024-01-30T00:10:19;101835.44;;;20.64;39.78
62544;BME280;48597;49.030;1.822;2024-01-30T00:12:44;101834.25;;;20.61;39.85
62544;BME280;48597;49.030;1.822;2024-01-30T00:15:10;101833.00;;;20.62;39.57
62544;BME280;48597;49.030;1.822;2024-01-30T00:17:38;101831.75;;;20.63;39.63
62544;BME280;48597;49.030;1.822;2024-01-30T00:20:04;101832.19;;;20.62;39.71
62544;BME280;48597;49.030;1.822;2024-01-30T00:22:34;101838.72;;;20.62;39.60
62544;BME280;48597;49.030;1.822;2024-01-30T00:25:00;101834.16;;;20.65;39.54
62544;BME280;48597;49.030;1.822;2024-01-30T00:27:26;101835.44;;;20.64;39.56
62544;BME280;48597;49.030;1.822;2024-01-30T00:29:52;101829.31;;;20.62;39.77
62544;BME280;48597;49.030;1.822;2024-01-30T00:32:18;101821.13;;;20.64;39.88
62544;BME280;48597;49.030;1.822;2024-01-30T00:34:44;101829.31;;;20.62;39.63
62544;BME280;48597;49.030;1.822;2024-01-30T00:37:10;101819.84;;;20.65;39.66
62544;BME280;48597;49.030;1.822;2024-01-30T00:39:35;101826.84;;;20.64;39.81
62544;BME280;48597;49.030;1.822;2024-01-30T00:42:01;101826.84;;;20.64;39.50
62544;BME280;48597;49.030;1.822;2024-01-30T00:44:26;101826.38;;;20.65;39.58
62544;BME280;48597;49.030;1.822;2024-01-30T00:46:52;101841.53;;;20.66;39.67
62544;BME280;48597;49.030;1.822;2024-01-30T00:49:17;101835.44;;;20.64;39.64
62544;BME280;48597;49.030;1.822;2024-01-30T00:51:42;101841.16;;;20.64;39.71
62544;BME280;48597;49.030;1.822;2024-01-30T00:54:08;101835.06;;;20.62;39.50
62544;BME280;48597;49.030;1.822;2024-01-30T00:56:33;101836.69;;;20.63;39.65
62544;BME280;48597;49.030;1.822;2024-01-30T00:58:59;101839.53;;;20.63;39.70
62544;BME280;48597;49.030;1.822;2024-01-30T01:01:24;101837.50;;;20.63;39.60
62544;BME280;48597;49.030;1.822;2024-01-30T01:03:49;101846.91;;;20.64;39.50
62544;BME280;48597;49.030;1.822;2024-01-30T01:06:15;101831.75;;;20.63;39.53
62544;BME280;48597;49.030;1.822;2024-01-30T01:08:40;101841.16;;;20.64;39.60
62544;BME280;48597;49.030;1.822;2024-01-30T01:11:05;101835.44;;;20.64;39.71
62544;BME280;48597;49.030;1.822;2024-01-30T01:13:31;101824.75;;;20.64;39.82
62544;BME280;48597;49.030;1.822;2024-01-30T01:15:56;101820.31;;;20.63;39.65
62544;BME280;48597;49.030;1.822;2024-01-30T01:18:22;101815.81;;;20.62;39.71
62544;BME280;48597;49.030;1.822;2024-01-30T01:20:48;101819.50;;;20.63;39.76
62544;BME280;48597;49.030;1.822;2024-01-30T01:23:15;101817.88;;;20.62;39.76
62544;BME280;48597;49.030;1.822;2024-01-30T01:25:40;101814.56;;;20.63;39.66
62544;BME280;48597;49.030;1.822;2024-01-30T01:28:06;101828.09;;;20.63;39.76
62544;BME280;48597;49.030;1.822;2024-01-30T01:30:31;101820.31;;;20.63;39.71
62544;BME280;48597;49.030;1.822;2024-01-30T01:32:56;101812.13;;;20.62;39.72
62544;BME280;48597;49.030;1.822;2024-01-30T01:35:25;101812.13;;;20.62;39.90
62544;BME280;48597;49.030;1.822;2024-01-30T01:37:52;101810.50;;;20.61;39.98
62544;BME280;48597;49.030;1.822;2024-01-30T01:40:23;101817.44;;;20.63;39.66
62544;BME280;48597;49.030;1.822;2024-01-30T01:42:50;101828.50;;;20.61;39.94
62544;BME280;48597;49.030;1.822;2024-01-30T01:45:16;101834.66;;;20.60;39.92
62544;BME280;48597;49.030;1.822;2024-01-30T01:47:42;101831.38;;;20.61;39.91
62544;BME280;48597;49.030;1.822;2024-01-30T01:50:08;101830.13;;;20.62;39.85
62544;BME280;48597;49.030;1.822;2024-01-30T01:52:33;101833.44;;;20.61;40.03
62544;BME280;48597;49.030;1.822;2024-01-30T01:54:59;101828.94;;;20.60;39.89
62544;BME280;48597;49.030;1.822;2024-01-30T01:57:25;101840.78;;;20.62;39.92
62544;BME280;48597;49.030;1.822;2024-01-30T01:59:51;101827.69;;;20.61;39.90
62544;BME280;48597;49.030;1.822;2024-01-30T02:02:17;101816.63;;;20.63;39.93
62544;BME280;48597;49.030;1.822;2024-01-30T02:04:45;101820.31;;;20.63;39.91
62544;BME280;48597;49.030;1.822;2024-01-30T02:07:10;101817.44;;;20.63;39.97
62544;BME280;48597;49.030;1.822;2024-01-30T02:09:36;101813.28;;;20.64;39.92
62544;BME280;48597;49.030;1.822;2024-01-30T02:12:01;101815.81;;;20.62;40.00
62544;BME280;48597;49.030;1.822;2024-01-30T02:14:27;101813.75;;;20.63;40.20
62544;BME280;48597;49.030;1.822;2024-01-30T02:16:52;101812.13;;;20.62;40.00
62544;BME280;48597;49.030;1.822;2024-01-30T02:19:18;101806.78;;;20.64;40.05
62544;BME280;48597;49.030;1.822;2024-01-30T02:21:44;101809.66;;;20.64;40.01
62544;BME280;48597;49.030;1.822;2024-01-30T02:24:10;101808.38;;;20.65;40.05
62544;BME280;48597;49.030;1.822;2024-01-30T02:26:35;101816.97;;;20.65;39.83
62544;BME280;48597;49.030;1.822;2024-01-30T02:29:01;101816.16;;;20.64;39.96
62544;BME280;48597;49.030;1.822;2024-01-30T02:31:26;101814.13;;;20.65;39.99
62544;BME280;48597;49.030;1.822;2024-01-30T02:33:51;101811.25;;;20.65;39.92
62544;BME280;48597;49.030;1.822;2024-01-30T02:36:17;101815.38;;;20.64;40.00
62544;BME280;48597;49.030;1.822;2024-01-30T02:38:42;101814.91;;;20.65;39.85
62544;BME280;48597;49.030;1.822;2024-01-30T02:41:07;101815.31;;;20.67;39.79
62544;BME280;48597;49.030;1.822;2024-01-30T02:43:33;101821.84;;;20.68;39.82
62544;BME280;48597;49.030;1.822;2024-01-30T02:45:58;101820.22;;;20.67;40.05
62544;BME280;48597;49.030;1.822;2024-01-30T02:48:24;101816.53;;;20.66;40.00
62544;BME280;48597;49.030;1.822;2024-01-30T02:50:50;101809.56;;;20.67;39.87
62544;BME280;48597;49.030;1.822;2024-01-30T02:53:15;101813.25;;;20.68;39.90
62544;BME280;48597;49.030;1.822;2024-01-30T02:55:40;101807.09;;;20.69;39.87
62544;BME280;48597;49.030;1.822;2024-01-30T02:58:06;101805.47;;;20.68;39.80
62544;BME280;48597;49.030;1.822;2024-01-30T03:00:32;101802.16;;;20.70;39.88
62544;BME280;48597;49.030;1.822;2024-01-30T03:02:57;101811.19;;;20.68;39.92
62544;BME280;48597;49.030;1.822;2024-01-30T03:05:22;101814.06;;;20.68;40.00
62544;BME280;48597;49.030;1.822;2024-01-30T03:07:48;101804.66;;;20.68;40.05
62544;BME280;48597;49.030;1.822;2024-01-30T03:10:13;101816.13;;;20.68;39.90
62544;BME280;48597;49.030;1.822;2024-01-30T03:12:38;101807.53;;;20.68;39.95
62544;BME280;48597;49.030;1.822;2024-01-30T03:15:04;101816.94;;;20.68;39.86
62544;BME280;48597;49.030;1.822;2024-01-30T03:17:29;101811.16;;;20.72;40.01
62544;BME280;48597;49.030;1.822;2024-01-30T03:19:55;101806.28;;;20.69;40.09
62544;BME280;48597;49.030;1.822;2024-01-30T03:22:20;101809.97;;;20.69;39.81
62544;BME280;48597;49.030;1.822;2024-01-30T03:24:45;101808.72;;;20.71;39.83
62544;BME280;48597;49.030;1.822;2024-01-30T03:27:11;101809.97;;;20.69;39.81
62544;BME280;48597;49.030;1.822;2024-01-30T03:29:36;101809.53;;;20.71;39.94
62544;BME280;48597;49.030;1.822;2024-01-30T03:32:02;101805.03;;;20.70;40.09
62544;BME280;48597;49.030;1.822;2024-01-30T03:34:29;101804.59;;;20.72;39.84
62544;BME280;48597;49.030;1.822;2024-01-30T03:36:54;101802.97;;;20.71;39.88
62544;BME280;48597;49.030;1.822;2024-01-30T03:39:19;101803.78;;;20.71;39.79
62544;BME280;48597;49.030;1.822;2024-01-30T03:41:45;101799.69;;;20.72;39.79
62544;BME280;48597;49.030;1.822;2024-01-30T03:44:10;101807.03;;;20.73;39.78
62544;BME280;48597;49.030;1.822;2024-01-30T03:46:36;101796.38;;;20.74;39.72
62544;BME280;48597;49.030;1.822;2024-01-30T03:49:01;101802.13;;;20.74;39.90
62544;BME280;48597;49.030;1.822;2024-01-30T03:51:27;101804.19;;;20.73;39.74
62544;BME280;48597;49.030;1.822;2024-01-30T03:53:52;101806.22;;;20.73;39.96
62544;BME280;48597;49.030;1.822;2024-01-30T03:56:17;101806.22;;;20.73;39.87
62544;BME280;48597;49.030;1.822;2024-01-30T03:58:43;101802.94;;;20.74;39.76
62544;BME280;48597;49.030;1.822;2024-01-30T04:01:15;101803.31;;;20.76;39.60
62544;BME280;48597;49.030;1.822;2024-01-30T04:03:41;101804.56;;;20.75;39.93
62544;BME280;48597;49.030;1.822;2024-01-30T04:06:08;101805.00;;;20.74;39.65
62544;BME280;48597;49.030;1.822;2024-01-30T04:08:33;101798.44;;;20.73;39.83
62544;BME280;48597;49.030;1.822;2024-01-30T04:10:59;101800.50;;;20.73;39.77
62544;BME280;48597;49.030;1.822;2024-01-30T04:13:27;101805.81;;;20.74;39.80
62544;BME280;48597;49.030;1.822;2024-01-30T04:15:53;101808.66;;;20.74;39.66
62544;BME280;48597;49.030;1.822;2024-01-30T04:18:20;101808.66;;;20.74;39.75
62544;BME280;48597;49.030;1.822;2024-01-30T04:20:45;101810.72;;;20.74;39.61
62544;BME280;48597;49.030;1.822;2024-01-30T04:23:11;101805.38;;;20.76;39.80
62544;BME280;48597;49.030;1.822;2024-01-30T04:25:36;101809.47;;;20.75;39.88
62544;BME280;48597;49.030;1.822;2024-01-30T04:28:01;101816.00;;;20.75;39.92
62544;BME280;48597;49.030;1.822;2024-01-30T04:30:27;101811.53;;;20.74;39.90
62544;BME280;48597;49.030;1.822;2024-01-30T04:32:52;101816.44;;;20.74;39.89
62544;BME280;48597;49.030;1.822;2024-01-30T04:35:18;101819.31;;;20.74;39.81
62544;BME280;48597;49.030;1.822;2024-01-30T04:37:45;101826.66;;;20.75;39.66
62544;BME280;48597;49.030;1.822;2024-01-30T04:40:11;101825.84;;;20.74;39.87
62544;BME280;48597;49.030;1.822;2024-01-30T04:42:36;101825.84;;;20.74;39.84
62544;BME280;48597;49.030;1.822;2024-01-30T04:45:02;101830.78;;;20.74;39.74
62544;BME280;48597;49.030;1.822;2024-01-30T04:47:27;101830.78;;;20.74;39.74
62544;BME280;48597;49.030;1.822;2024-01-30T04:49:52;101831.19;;;20.72;39.82
62544;BME280;48597;49.030;1.822;2024-01-30T04:52:18;101839.38;;;20.74;39.82
62544;BME280;48597;49.030;1.822;2024-01-30T04:54:43;101836.50;;;20.74;39.92
62544;BME280;48597;49.030;1.822;2024-01-30T04:57:09;101839.75;;;20.76;39.79
62544;BME280;48597;49.030;1.822;2024-01-30T04:59:37;101839.75;;;20.76;39.63
62544;BME280;48597;49.030;1.822;2024-01-30T05:02:02;101839.75;;;20.76;39.82
62544;BME280;48597;49.030;1.822;2024-01-30T05:04:28;101834.03;;;20.76;39.66
62544;BME280;48597;49.030;1.822;2024-01-30T05:06:53;101835.69;;;20.73;39.79
62544;BME280;48597;49.030;1.822;2024-01-30T05:09:18;101850.00;;;20.73;39.58
62544;BME280;48597;49.030;1.822;2024-01-30T05:11:44;101852.88;;;20.73;39.84
62544;BME280;48597;49.030;1.822;2024-01-30T05:14:09;101857.38;;;20.74;40.00
62544;BME280;48597;49.030;1.822;2024-01-30T05:16:36;101865.97;;;20.74;39.77
62544;BME280;48597;49.030;1.822;2024-01-30T05:19:02;101850.00;;;20.73;39.73
62544;BME280;48597;49.030;1.822;2024-01-30T05:21:27;101852.06;;;20.73;39.86
62544;BME280;48597;49.030;1.822;2024-01-30T05:23:53;101863.53;;;20.73;39.85
62544;BME280;48597;49.030;1.822;2024-01-30T05:26:19;101872.13;;;20.73;39.98
62544;BME280;48597;49.030;1.822;2024-01-30T05:28:44;101870.50;;;20.72;39.71
62544;BME280;48597;49.030;1.822;2024-01-30T05:31:10;101886.88;;;20.71;39.84
62544;BME280;48597;49.030;1.822;2024-01-30T05:33:35;101886.44;;;20.73;39.92
62544;BME280;48597;49.030;1.822;2024-01-30T05:36:01;101878.28;;;20.71;39.83
62544;BME280;48597;49.030;1.822;2024-01-30T05:38:26;101891.38;;;20.72;40.02
62544;BME280;48597;49.030;1.822;2024-01-30T05:40:52;101874.19;;;20.72;39.86
62544;BME280;48597;49.030;1.822;2024-01-30T05:43:17;101883.59;;;20.73;39.78
62544;BME280;48597;49.030;1.822;2024-01-30T05:45:43;101884.81;;;20.72;39.90
62544;BME280;48597;49.030;1.822;2024-01-30T05:48:08;101883.16;;;20.74;39.90
62544;BME280;48597;49.030;1.822;2024-01-30T05:50:33;101899.53;;;20.74;39.80
62544;BME280;48597;49.030;1.822;2024-01-30T05:52:59;101899.09;;;20.75;39.61
62544;BME280;48597;49.030;1.822;2024-01-30T05:55:24;101896.66;;;20.74;39.78
62544;BME280;48597;49.030;1.822;2024-01-30T05:57:49;101905.75;;;20.68;40.18
62544;BME280;48597;49.030;1.822;2024-01-30T06:00:16;101905.34;;;20.66;40.38
62544;BME280;48597;49.030;1.822;2024-01-30T06:02:41;101903.38;;;20.63;40.29
62544;BME280;48597;49.030;1.822;2024-01-30T06:05:07;101903.00;;;20.61;40.50
62544;BME280;48597;49.030;1.822;2024-01-30T06:07:32;101900.94;;;20.62;40.60
62544;BME280;48597;49.030;1.822;2024-01-30T06:09:58;101898.50;;;20.60;40.61
62544;BME280;48597;49.030;1.822;2024-01-30T06:12:25;101895.25;;;20.58;40.59
62544;BME280;48597;49.030;1.822;2024-01-30T06:14:51;101900.97;;;20.58;40.55
62544;BME280;48597;49.030;1.822;2024-01-30T06:17:22;101900.16;;;20.58;40.43
62544;BME280;48597;49.030;1.822;2024-01-30T06:19:57;101906.75;;;20.55;40.80
62544;BME280;48597;49.030;1.822;2024-01-30T06:22:23;101905.50;;;20.56;40.72
62544;BME280;48597;49.030;1.822;2024-01-30T06:24:48;101906.38;;;20.53;40.80
62544;BME280;48597;49.030;1.822;2024-01-30T06:27:14;101909.22;;;20.53;40.71
62544;BME280;48597;49.030;1.822;2024-01-30T06:29:40;101914.97;;;20.53;40.83
62544;BME280;48597;49.030;1.822;2024-01-30T06:32:06;101918.25;;;20.51;40.68
62544;BME280;48597;49.030;1.822;2024-01-30T06:34:31;101925.25;;;20.50;40.74
62544;BME280;48597;49.030;1.822;2024-01-30T06:36:56;101922.81;;;20.49;40.90
62544;BME280;48597;49.030;1.822;2024-01-30T06:39:22;101923.63;;;20.49;40.77
62544;BME280;48597;49.030;1.822;2024-01-30T06:41:48;101921.56;;;20.50;40.82
62544;BME280;48597;49.030;1.822;2024-01-30T06:44:13;101921.19;;;20.48;41.02
62544;BME280;48597;49.030;1.822;2024-01-30T06:46:39;101924.47;;;20.46;41.12
62544;BME280;48597;49.030;1.822;2024-01-30T06:49:04;101931.44;;;20.45;40.70
62544;BME280;48597;49.030;1.822;2024-01-30T06:51:30;101932.69;;;20.44;40.97
62544;BME280;48597;49.030;1.822;2024-01-30T06:53:55;101939.66;;;20.43;41.09
62544;BME280;48597;49.030;1.822;2024-01-30T06:56:21;101938.84;;;20.43;41.03
62544;BME280;48597;49.030;1.822;2024-01-30T06:58:55;101940.47;;;20.44;41.02
62544;BME280;48597;49.030;1.822;2024-01-30T07:01:27;101941.69;;;20.43;41.19
62544;BME280;48597;49.030;1.822;2024-01-30T07:03:52;101944.19;;;20.41;40.96
62544;BME280;48597;49.030;1.822;2024-01-30T07:06:18;101946.22;;;20.40;41.02
62544;BME280;48597;49.030;1.822;2024-01-30T07:08:43;101956.88;;;20.40;41.06
62544;BME280;48597;49.030;1.822;2024-01-30T07:11:09;101959.72;;;20.40;41.13
62544;BME280;48597;49.030;1.822;2024-01-30T07:13:34;101958.91;;;20.39;41.07
62544;BME280;48597;49.030;1.822;2024-01-30T07:16:00;101961.44;;;20.37;41.29
62544;BME280;48597;49.030;1.822;2024-01-30T07:18:25;101967.16;;;20.37;41.25
62544;BME280;48597;49.030;1.822;2024-01-30T07:20:51;101965.53;;;20.36;41.21
62544;BME280;48597;49.030;1.822;2024-01-30T07:23:16;101973.31;;;20.36;41.34
62544;BME280;48597;49.030;1.822;2024-01-30T07:25:46;101974.13;;;20.36;41.06
62544;BME280;48597;49.030;1.822;2024-01-30T07:28:14;101976.16;;;20.36;41.27
62544;BME280;48597;49.030;1.822;2024-01-30T07:30:42;101976.16;;;20.36;41.11
62544;BME280;48597;49.030;1.822;2024-01-30T07:33:08;101981.47;;;20.33;41.27
62544;BME280;48597;49.030;1.822;2024-01-30T07:35:34;101983.09;;;20.34;41.19
62544;BME280;48597;49.030;1.822;2024-01-30T07:37:59;101982.72;;;20.32;41.28
62544;BME280;48597;49.030;1.822;2024-01-30T07:40:24;101984.75;;;20.32;41.27
62544;BME280;48597;49.030;1.822;2024-01-30T07:42:50;101985.19;;;20.30;41.12
62544;BME280;48597;49.030;1.822;2024-01-30T07:45:15;101990.09;;;20.30;41.20
62544;BME280;48597;49.030;1.822;2024-01-30T07:47:41;101981.13;;;20.28;41.12
62544;BME280;48597;49.030;1.822;2024-01-30T07:50:07;101981.53;;;20.26;41.16
62544;BME280;48597;49.030;1.822;2024-01-30T07:52:33;101995.84;;;20.26;41.15
62544;BME280;48597;49.030;1.822;2024-01-30T07:54:58;101994.22;;;20.25;41.06
62544;BME280;48597;49.030;1.822;2024-01-30T07:57:23;101999.59;;;20.23;41.16
62544;BME280;48597;49.030;1.822;2024-01-30T07:59:49;101989.38;;;20.22;41.32
62544;BME280;48597;49.030;1.822;2024-01-30T08:02:15;101995.09;;;20.22;41.32
62544;BME280;48597;49.030;1.822;2024-01-30T08:04:40;101997.97;;;20.22;41.33
62544;BME280;48597;49.030;1.822;2024-01-30T08:07:06;102002.88;;;20.22;41.32
62544;BME280;48597;49.030;1.822;2024-01-30T08:09:31;102001.66;;;20.23;41.42
62544;BME280;48597;49.030;1.822;2024-01-30T08:11:57;102015.16;;;20.22;41.41
62544;BME280;48597;49.030;1.822;2024-01-30T08:14:22;102007.78;;;20.21;41.28
62544;BME280;48597;49.030;1.822;2024-01-30T08:16:48;102017.19;;;20.22;41.54
62544;BME280;48597;49.030;1.822;2024-01-30T08:19:14;102021.28;;;20.21;41.36
62544;BME280;48597;49.030;1.822;2024-01-30T08:21:40;102022.09;;;20.21;41.54
62544;BME280;48597;49.030;1.822;2024-01-30T08:24:06;102028.25;;;20.20;41.54
62544;BME280;48597;49.030;1.822;2024-01-30T08:26:32;102034.78;;;20.20;41.50
62544;BME280;48597;49.030;1.822;2024-01-30T08:28:58;102035.22;;;20.19;41.78
62544;BME280;48597;49.030;1.822;2024-01-30T08:31:23;102036.44;;;20.18;41.57
62544;BME280;48597;49.030;1.822;2024-01-30T08:33:48;102042.59;;;20.16;41.57
62544;BME280;48597;49.030;1.822;2024-01-30T08:36:15;102052.00;;;20.17;41.58
62544;BME280;48597;49.030;1.822;2024-01-30T08:38:40;102040.56;;;20.17;41.63
62544;BME280;48597;49.030;1.822;2024-01-30T08:41:07;102048.31;;;20.16;41.72
62544;BME280;48597;49.030;1.822;2024-01-30T08:43:32;102055.28;;;20.15;41.74
62544;BME280;48597;49.030;1.822;2024-01-30T08:46:01;102062.25;;;20.14;41.84
62544;BME280;48597;49.030;1.822;2024-01-30T08:48:26;102054.47;;;20.15;41.73
62544;BME280;48597;49.030;1.822;2024-01-30T08:50:52;102059.38;;;20.14;41.92
62544;BME280;48597;49.030;1.822;2024-01-30T08:53:18;102063.06;;;20.15;41.70
62544;BME280;48597;49.030;1.822;2024-01-30T08:55:44;102059.38;;;20.14;41.67
62544;BME280;48597;49.030;1.822;2024-01-30T08:58:09;102061.44;;;20.14;41.90
62544;BME280;48597;49.030;1.822;2024-01-30T09:00:34;102062.25;;;20.14;41.90
62544;BME280;48597;49.030;1.822;2024-01-30T09:03:00;102069.22;;;20.13;41.83
62544;BME280;48597;49.030;1.822;2024-01-30T09:05:25;102063.47;;;20.13;41.76
62544;BME280;48597;49.030;1.822;2024-01-30T09:07:50;102070.47;;;20.12;41.95
62544;BME280;48597;49.030;1.822;2024-01-30T09:10:16;102076.19;;;20.12;41.86
62544;BME280;48597;49.030;1.822;2024-01-30T09:12:41;102076.97;;;20.13;41.90
62544;BME280;48597;49.030;1.822;2024-01-30T09:15:07;102082.69;;;20.13;41.80
62544;BME280;48597;49.030;1.822;2024-01-30T09:17:32;102093.38;;;20.12;41.81
62544;BME280;48597;49.030;1.822;2024-01-30T09:19:58;102102.75;;;20.13;41.98
62544;BME280;48597;49.030;1.822;2024-01-30T09:22:24;102099.09;;;20.12;42.01
62544;BME280;48597;49.030;1.822;2024-01-30T09:24:49;102104.00;;;20.12;42.02
62544;BME280;48597;49.030;1.822;2024-01-30T09:27:15;102119.13;;;20.12;41.94
62544;BME280;48597;49.030;1.822;2024-01-30T09:29:40;102111.34;;;20.13;41.97
62544;BME280;48597;49.030;1.822;2024-01-30T09:32:06;102110.53;;;20.12;41.91
62544;BME280;48597;49.030;1.822;2024-01-30T09:34:32;102110.53;;;20.12;42.09
62544;BME280;48597;49.030;1.822;2024-01-30T09:36:58;102128.50;;;20.13;42.07
62544;BME280;48597;49.030;1.822;2024-01-30T09:39:25;102128.50;;;20.13;42.00
62544;BME280;48597;49.030;1.822;2024-01-30T09:44:25;102142.81;;;20.13;42.16
62544;BME280;48597;49.030;1.822;2024-01-30T09:46:53;102146.50;;;20.13;41.94
62544;BME280;48597;49.030;1.822;2024-01-30T09:49:20;102151.41;;;20.13;42.16
62544;BME280;48597;49.030;1.822;2024-01-30T09:51:50;102149.34;;;20.13;42.09
62544;BME280;48597;49.030;1.822;2024-01-30T09:54:16;102157.94;;;20.13;41.96
62544;BME280;48597;49.030;1.822;2024-01-30T09:56:42;102157.94;;;20.13;41.93
62544;BME280;48597;49.030;1.822;2024-01-30T09:59:08;102169.41;;;20.13;41.89
62544;BME280;48597;49.030;1.822;2024-01-30T10:01:34;102164.47;;;20.14;41.90
62544;BME280;48597;49.030;1.822;2024-01-30T10:04:00;102166.53;;;20.13;42.02
62544;BME280;48597;49.030;1.822;2024-01-30T10:06:26;102176.75;;;20.14;41.92
62544;BME280;48597;49.030;1.822;2024-01-30T10:08:52;102178.81;;;20.14;41.93
62544;BME280;48597;49.030;1.822;2024-01-30T10:11:18;102177.56;;;20.15;42.15
62544;BME280;48597;49.030;1.822;2024-01-30T10:13:43;102191.88;;;20.15;42.03
62544;BME280;48597;49.030;1.822;2024-01-30T10:16:08;102189.44;;;20.13;41.97
62544;BME280;48597;49.030;1.822;2024-01-30T10:18:34;102180.84;;;20.13;42.02
62544;BME280;48597;49.030;1.822;2024-01-30T10:20:59;102189.44;;;20.13;41.85
62544;BME280;48597;49.030;1.822;2024-01-30T10:23:25;102193.94;;;20.14;42.14
62544;BME280;48597;49.030;1.822;2024-01-30T10:25:51;102193.13;;;20.14;42.00
62544;BME280;48597;49.030;1.822;2024-01-30T10:28:17;102197.59;;;20.15;41.89
62544;BME280;48597;49.030;1.822;2024-01-30T10:30:43;102199.66;;;20.14;42.05
62544;BME280;48597;49.030;1.822;2024-01-30T10:33:08;102198.03;;;20.13;41.90
62544;BME280;48597;49.030;1.822;2024-01-30T10:35:33;102211.09;;;20.14;41.87
62544;BME280;48597;49.030;1.822;2024-01-30T10:37:59;102211.91;;;20.15;42.04
62544;BME280;48597;49.030;1.822;2024-01-30T10:40:28;102209.88;;;20.15;41.98
62544;BME280;48597;49.030;1.822;2024-01-30T10:42:55;102216.00;;;20.14;41.93
62544;BME280;48597;49.030;1.822;2024-01-30T10:45:22;102215.59;;;20.15;42.01
62544;BME280;48597;49.030;1.822;2024-01-30T10:47:53;102218.47;;;20.15;41.80
62544;BME280;48597;49.030;1.822;2024-01-30T10:50:24;102225.41;;;20.14;41.89
62544;BME280;48597;49.030;1.822;2024-01-30T10:52:50;102228.28;;;20.14;41.94
62544;BME280;48597;49.030;1.822;2024-01-30T10:55:15;102225.41;;;20.14;41.89
62544;BME280;48597;49.030;1.822;2024-01-30T10:57:41;102228.28;;;20.14;41.90
62544;BME280;48597;49.030;1.822;2024-01-30T11:00:11;102234.00;;;20.14;42.06
62544;BME280;48597;49.030;1.822;2024-01-30T11:02:43;102234.00;;;20.14;41.92
62544;BME280;48597;49.030;1.822;2024-01-30T11:05:09;102238.09;;;20.13;41.97
62544;BME280;48597;49.030;1.822;2024-01-30T11:07:34;102231.13;;;20.14;42.05
62544;BME280;48597;49.030;1.822;2024-01-30T11:10:02;102224.59;;;20.14;42.01
62544;BME280;48597;49.030;1.822;2024-01-30T11:12:30;102226.66;;;20.13;41.80
62544;BME280;48597;49.030;1.822;2024-01-30T11:15:09;102236.06;;;20.14;41.94
62544;BME280;48597;49.030;1.822;2024-01-30T11:20:11;102232.38;;;20.13;41.89
62544;BME280;48597;49.030;1.822;2024-01-30T11:22:37;102232.38;;;20.13;41.94
62544;BME280;48597;49.030;1.822;2024-01-30T11:25:03;102232.38;;;20.13;41.98
62544;BME280;48597;49.030;1.822;2024-01-30T11:27:30;102244.63;;;20.14;41.84
62544;BME280;48597;49.030;1.822;2024-01-30T11:30:01;102243.81;;;20.13;41.91
62544;BME280;48597;49.030;1.822;2024-01-30T11:32:27;102246.69;;;20.13;41.82
62544;BME280;48597;49.030;1.822;2024-01-30T11:34:53;102251.59;;;20.13;41.79
62544;BME280;48597;49.030;1.822;2024-01-30T11:37:20;102248.72;;;20.13;41.93
62544;BME280;48597;49.030;1.822;2024-01-30T11:39:48;102248.72;;;20.13;41.93
62544;BME280;48597;49.030;1.822;2024-01-30T11:42:13;102249.56;;;20.13;41.72
62544;BME280;48597;49.030;1.822;2024-01-30T11:44:39;102245.09;;;20.12;41.90
62544;BME280;48597;49.030;1.822;2024-01-30T11:47:05;102249.56;;;20.13;41.96
62544;BME280;48597;49.030;1.822;2024-01-30T11:49:30;102240.16;;;20.13;41.93
62544;BME280;48597;49.030;1.822;2024-01-30T11:51:56;102249.56;;;20.13;41.90
62544;BME280;48597;49.030;1.822;2024-01-30T11:54:21;102243.81;;;20.13;41.91
62544;BME280;48597;49.030;1.822;2024-01-30T11:56:47;102247.50;;;20.14;41.79
62544;BME280;48597;49.030;1.822;2024-01-30T11:59:13;102258.13;;;20.13;41.83
62544;BME280;48597;49.030;1.822;2024-01-30T12:01:39;102250.38;;;20.14;41.83
62544;BME280;48597;49.030;1.822;2024-01-30T12:04:05;102254.47;;;20.13;41.90
62544;BME280;48597;49.030;1.822;2024-01-30T12:06:34;102251.59;;;20.13;41.76
62544;BME280;48597;49.030;1.822;2024-01-30T12:09:01;102253.22;;;20.14;41.90
62544;BME280;48597;49.030;1.822;2024-01-30T12:11:29;102253.22;;;20.14;41.76
62544;BME280;48597;49.030;1.822;2024-01-30T12:13:55;102252.41;;;20.13;41.60
62544;BME280;48597;49.030;1.822;2024-01-30T12:16:21;102246.69;;;20.13;41.76
62544;BME280;48597;49.030;1.822;2024-01-30T12:18:46;102245.47;;;20.14;41.74
62544;BME280;48597;49.030;1.822;2024-01-30T12:21:12;102236.06;;;20.14;41.83
62544;BME280;48597;49.030;1.822;2024-01-30T12:23:37;102238.91;;;20.14;41.90
62544;BME280;48597;49.030;1.822;2024-01-30T12:26:03;102235.25;;;20.13;41.74
62544;BME280;48597;49.030;1.822;2024-01-30T12:28:32;102234.00;;;20.14;41.70
62544;BME280;48597;49.030;1.822;2024-01-30T12:31:04;102249.94;;;20.15;41.80
62544;BME280;48597;49.030;1.822;2024-01-30T12:33:30;102241.38;;;20.15;41.73
62544;BME280;48597;49.030;1.822;2024-01-30T12:35:56;102244.22;;;20.15;41.75
62544;BME280;48597;49.030;1.822;2024-01-30T12:38:22;102238.50;;;20.15;41.88
62544;BME280;48597;49.030;1.822;2024-01-30T12:40:49;102247.09;;;20.15;41.89
62544;BME280;48597;49.030;1.822;2024-01-30T12:43:14;102252.81;;;20.15;41.78
62544;BME280;48597;49.030;1.822;2024-01-30T12:45:41;102242.19;;;20.16;41.93
62544;BME280;48597;49.030;1.822;2024-01-30T12:48:07;102239.31;;;20.16;41.72